createdAt,value
2023-06-02T00:03:31.328Z,99575.39
2023-06-02T00:07:34.808Z,99574.42
2023-06-02T00:11:40.067Z,99574.89
2023-06-02T00:15:44.631Z,99572.67
2023-06-02T00:19:48.637Z,99573.08
2023-06-02T00:23:52.111Z,99576.36
2023-06-02T00:27:55.817Z,99578.63
2023-06-02T00:31:59.290Z,99584.58
2023-06-02T00:36:03.260Z,99588.67
2023-06-02T00:40:08.332Z,99589.83
2023-06-02T00:44:11.781Z,99596.31
2023-06-02T00:48:15.209Z,99593.20
2023-06-02T00:52:20.306Z,99596.35
2023-06-02T00:56:24.548Z,99595.97
2023-06-02T01:00:28.721Z,99599.88
2023-06-02T01:04:33.038Z,99603.70
2023-06-02T01:08:40.513Z,99602.77
2023-06-02T01:12:46.272Z,99598.38
2023-06-02T01:16:53.182Z,99594.76
2023-06-02T01:21:02.409Z,99594.70
2023-06-02T01:25:21.132Z,99595.88
2023-06-02T01:29:24.513Z,99596.27
2023-06-02T01:33:57.008Z,99596.34
2023-06-02T01:38:02.532Z,99595.36
2023-06-02T01:42:08.676Z,99596.97
2023-06-02T01:46:13.380Z,99601.38
2023-06-02T01:50:16.792Z,99602.08
2023-06-02T01:54:20.316Z,99605.14
2023-06-02T01:58:24.219Z,99607.95
2023-06-02T02:02:27.697Z,99611.23
2023-06-02T02:06:35.739Z,99611.44
2023-06-02T02:10:39.126Z,99617.48
2023-06-02T02:14:42.652Z,99621.11
2023-06-02T02:18:47.537Z,99624.23
2023-06-02T02:22:51.204Z,99623.94
2023-06-02T02:26:55.255Z,99626.01
2023-06-02T02:31:01.182Z,99626.13
2023-06-02T02:35:09.155Z,99622.07
2023-06-02T02:39:13.737Z,99620.88
2023-06-02T02:43:19.652Z,99626.59
2023-06-02T02:47:23.498Z,99627.84
2023-06-02T02:51:27.099Z,99633.96
2023-06-02T02:55:34.090Z,99639.13
2023-06-02T02:59:37.604Z,99635.37
2023-06-02T03:03:42.854Z,99638.98
2023-06-02T03:07:48.096Z,99640.02
2023-06-02T03:11:51.949Z,99645.23
2023-06-02T03:15:56.083Z,99645.54
2023-06-02T03:20:00.078Z,99651.17
2023-06-02T03:24:04.442Z,99656.41
2023-06-02T03:28:14.603Z,99660.50
2023-06-02T03:32:18.125Z,99663.23
2023-06-02T03:36:23.900Z,99663.19
2023-06-02T03:40:27.335Z,99661.98
2023-06-02T03:44:31.767Z,99656.23
2023-06-02T03:48:37.008Z,99663.41
2023-06-02T03:52:41.031Z,99665.38
2023-06-02T03:56:45.679Z,99667.27
2023-06-02T04:00:49.815Z,99664.95
2023-06-02T04:04:53.981Z,99663.36
2023-06-02T04:09:00.028Z,99671.85
2023-06-02T04:13:04.069Z,99673.41
2023-06-02T04:17:09.066Z,99680.19
2023-06-02T04:21:12.634Z,99680.49
2023-06-02T04:25:17.872Z,99678.40
2023-06-02T04:29:21.425Z,99678.60
2023-06-02T04:33:25.519Z,99679.15
2023-06-02T04:37:29.274Z,99687.14
2023-06-02T04:41:45.899Z,99687.20
2023-06-02T04:45:52.116Z,99690.48
2023-06-02T04:49:58.816Z,99689.38
2023-06-02T04:54:02.890Z,99691.91
2023-06-02T04:58:07.043Z,99693.28
2023-06-02T05:02:12.143Z,99698.91
2023-06-02T05:06:16.633Z,99707.88
2023-06-02T05:10:21.468Z,99702.90
2023-06-02T05:14:25.794Z,99710.84
2023-06-02T05:18:30.579Z,99713.33
2023-06-02T05:22:35.893Z,99716.41
2023-06-02T05:26:40.609Z,99727.65
2023-06-02T05:30:45.413Z,99723.14
2023-06-02T05:34:49.803Z,99729.67
2023-06-02T05:38:54.160Z,99729.75
2023-06-02T05:42:59.959Z,99730.90
2023-06-02T05:47:05.245Z,99728.20
2023-06-02T05:51:09.582Z,99736.35
2023-06-02T05:55:13.177Z,99736.17
2023-06-02T05:59:17.708Z,99735.64
2023-06-02T06:03:21.363Z,99737.69
2023-06-02T06:07:26.786Z,99734.11
2023-06-02T06:11:31.358Z,99730.81
2023-06-02T06:15:34.779Z,99725.86
2023-06-02T06:19:39.339Z,99727.48
2023-06-02T06:23:43.372Z,99726.43
2023-06-02T06:27:49.983Z,99726.61
2023-06-02T06:31:54.705Z,99731.77
2023-06-02T06:35:58.355Z,99732.29
2023-06-02T06:40:02.533Z,99737.72
2023-06-02T06:44:07.673Z,99736.27
2023-06-02T06:48:11.908Z,99737.23
2023-06-02T06:52:16.409Z,99746.77
2023-06-02T06:56:20.288Z,99741.69
2023-06-02T07:00:24.124Z,99744.31
2023-06-02T07:04:32.182Z,99747.13
2023-06-02T07:08:42.076Z,99744.23
2023-06-02T07:12:46.236Z,99741.52
2023-06-02T07:16:55.630Z,99747.88
2023-06-02T07:20:59.184Z,99765.23
2023-06-02T07:25:04.334Z,99773.98
2023-06-02T07:29:08.460Z,99778.35
2023-06-02T07:33:13.321Z,99783.55
2023-06-02T07:37:17.234Z,99782.99
2023-06-02T07:41:22.158Z,99784.91
2023-06-02T07:45:27.171Z,99788.83
2023-06-02T07:49:30.679Z,99794.98
2023-06-02T07:53:34.240Z,99802.05
2023-06-02T07:57:37.705Z,99805.41
2023-06-02T08:01:41.258Z,99813.85
2023-06-02T08:05:46.256Z,99812.89
2023-06-02T08:09:50.009Z,99816.02
2023-06-02T08:13:53.434Z,99827.76
2023-06-02T08:17:56.866Z,99830.91
2023-06-02T08:22:02.300Z,99837.36
2023-06-02T08:26:05.942Z,99835.88
2023-06-02T08:30:11.516Z,99843.38
2023-06-02T08:34:15.100Z,99846.11
2023-06-02T08:38:21.565Z,99852.50
2023-06-02T08:42:27.991Z,99854.11
2023-06-02T08:46:32.362Z,99855.79
2023-06-02T08:50:41.786Z,99861.27
2023-06-02T08:54:48.023Z,99868.51
2023-06-02T08:58:54.507Z,99873.04
2023-06-02T09:02:58.126Z,99882.29
2023-06-02T09:07:24.607Z,99889.11
2023-06-02T09:11:29.474Z,99893.88
2023-06-02T09:15:37.090Z,99897.36
2023-06-02T09:19:51.347Z,99900.08
2023-06-02T09:24:12.078Z,99903.77
2023-06-02T09:28:18.323Z,99910.26
2023-06-02T09:32:22.404Z,99917.86
2023-06-02T09:36:31.178Z,99915.59
2023-06-02T09:40:36.560Z,99906.33
2023-06-02T09:45:02.900Z,99906.62
2023-06-02T09:49:07.230Z,99908.63
2023-06-02T09:53:15.057Z,99909.09
2023-06-02T09:57:18.705Z,99909.66
2023-06-02T10:01:22.877Z,99901.94
2023-06-02T10:05:31.155Z,99899.96
2023-06-02T10:10:12.150Z,99898.29
2023-06-02T10:14:23.817Z,99896.52
2023-06-02T10:18:55.486Z,99901.75
2023-06-02T10:23:16.475Z,99901.70
2023-06-02T10:27:35.738Z,99906.79
2023-06-02T10:31:41.240Z,99908.61
2023-06-02T10:36:00.514Z,99907.77
2023-06-02T10:40:05.230Z,99908.67
2023-06-02T10:44:28.786Z,99912.73
2023-06-02T10:48:43.757Z,99910.27
2023-06-02T10:53:15.283Z,99913.30
2023-06-02T10:57:52.255Z,99924.80
2023-06-02T11:01:55.854Z,99928.34
2023-06-02T11:06:29.310Z,99929.29
2023-06-02T11:10:59.915Z,99931.11
2023-06-02T11:15:06.883Z,99937.11
2023-06-02T11:19:10.363Z,99943.55
2023-06-02T11:23:14.452Z,99955.69
2023-06-02T11:27:36.449Z,99966.17
2023-06-02T11:31:49.038Z,99972.07
2023-06-02T11:35:59.803Z,99977.23
2023-06-02T11:40:07.285Z,99984.76
2023-06-02T11:44:12.461Z,99993.60
2023-06-02T11:48:16.548Z,100005.26
2023-06-02T11:52:21.771Z,100006.54
2023-06-02T11:56:28.187Z,100011.48
2023-06-02T12:00:31.957Z,100011.83
2023-06-02T12:04:44.337Z,100009.67
2023-06-02T12:08:47.940Z,100015.45
2023-06-02T12:12:51.366Z,100018.64
2023-06-02T12:17:06.174Z,100019.83
2023-06-02T12:21:28.188Z,100023.73
2023-06-02T12:25:33.904Z,100028.79
2023-06-02T12:29:37.685Z,100029.19
2023-06-02T12:33:42.300Z,100027.02
2023-06-02T12:37:45.752Z,100037.90
2023-06-02T12:41:49.889Z,100036.31
2023-06-02T12:45:53.563Z,100037.56
2023-06-02T12:49:58.093Z,100040.02
2023-06-02T12:54:03.483Z,100036.09
2023-06-02T12:58:07.896Z,100038.48
2023-06-02T13:02:14.755Z,100037.88
2023-06-02T13:06:18.982Z,100043.83
2023-06-02T13:10:25.013Z,100044.08
2023-06-02T13:14:28.677Z,100046.34
2023-06-02T13:18:32.788Z,100054.44
2023-06-02T13:22:36.542Z,100057.33
2023-06-02T13:26:40.264Z,100064.66
2023-06-02T13:30:43.762Z,100073.92
2023-06-02T13:34:58.895Z,100079.16
2023-06-02T13:39:02.441Z,100088.14
2023-06-02T13:43:06.545Z,100091.50
2023-06-02T13:47:10.295Z,100101.74
2023-06-02T13:51:14.896Z,100110.27
2023-06-02T13:55:18.965Z,100114.70
2023-06-02T13:59:22.460Z,100123.34
2023-06-02T14:03:27.228Z,100135.05
2023-06-02T14:07:32.046Z,100136.36
2023-06-02T14:11:40.376Z,100139.38
2023-06-02T14:15:46.507Z,100137.69
2023-06-02T14:20:27.363Z,100140.52
2023-06-02T14:24:35.764Z,100147.33
2023-06-02T14:28:48.015Z,100157.88
2023-06-02T14:32:51.947Z,100162.17
2023-06-02T14:36:57.746Z,100159.23
2023-06-02T14:41:01.329Z,100167.71
2023-06-02T14:45:16.711Z,100170.79
2023-06-02T14:49:20.588Z,100172.84
2023-06-02T14:53:24.244Z,100181.98
2023-06-02T14:57:30.874Z,100191.11
2023-06-02T15:01:34.702Z,100198.23
2023-06-02T15:05:40.851Z,100199.55
2023-06-02T15:09:46.294Z,100196.89
2023-06-02T15:13:54.418Z,100199.68
2023-06-02T15:17:58.209Z,100200.21
2023-06-02T15:22:11.600Z,100201.45
2023-06-02T15:26:21.168Z,100200.96
2023-06-02T15:30:32.388Z,100201.27
2023-06-02T15:34:36.171Z,100199.35
2023-06-02T15:38:41.616Z,100196.02
2023-06-02T15:42:51.373Z,100197.89
2023-06-02T15:46:56.452Z,100201.52
2023-06-02T15:51:00.839Z,100200.78
2023-06-02T15:55:05.201Z,100199.89
2023-06-02T15:59:14.107Z,100205.55
2023-06-02T16:03:19.495Z,100203.20
2023-06-02T16:07:23.388Z,100205.98
2023-06-02T16:11:37.547Z,100211.62
2023-06-02T16:15:44.679Z,100208.81
2023-06-02T16:19:49.589Z,100206.58
2023-06-02T16:23:54.476Z,100208.71
2023-06-02T16:28:13.481Z,100212.42
2023-06-02T16:32:17.385Z,100214.13
2023-06-02T16:36:34.844Z,100220.59
2023-06-02T16:40:56.476Z,100222.88
2023-06-02T16:45:28.333Z,100224.90
2023-06-02T16:49:40.249Z,100228.80
2023-06-02T16:58:41.367Z,100232.77
2023-06-02T17:03:33.326Z,100231.77
2023-06-02T17:08:16.615Z,100237.02
2023-06-02T17:12:35.693Z,100241.85
2023-06-02T17:16:48.362Z,100243.33
2023-06-02T17:26:08.438Z,100252.14
2023-06-02T17:30:24.418Z,100251.23
2023-06-02T17:58:06.100Z,100258.48
2023-06-02T18:04:53.250Z,100261.55
2023-06-02T18:09:14.696Z,100261.92
2023-06-02T18:14:00.151Z,100268.86
2023-06-02T18:18:32.569Z,100274.20
2023-06-02T18:22:37.494Z,100280.77
2023-06-02T18:26:41.825Z,100290.83
2023-06-02T18:30:46.196Z,100296.52
2023-06-02T18:34:50.106Z,100298.94
2023-06-02T18:38:56.678Z,100302.27
2023-06-02T18:43:02.296Z,100310.96
2023-06-02T18:47:39.193Z,100315.55
2023-06-02T18:53:42.415Z,100326.30
2023-06-02T18:59:10.517Z,100335.84
2023-06-02T19:05:32.917Z,100345.02
2023-06-02T19:11:04.310Z,100354.02
2023-06-02T19:16:06.989Z,100355.17
2023-06-02T19:26:21.981Z,100365.02
2023-06-02T19:34:45.830Z,100373.65
2023-06-02T19:37:02.640Z,100389.02
2023-06-02T19:41:57.024Z,100392.34
2023-06-02T19:50:14.189Z,100399.51
2023-06-02T20:03:50.758Z,100427.89
2023-06-02T20:08:39.595Z,100435.56
2023-06-02T20:13:17.215Z,100438.66
2023-06-02T20:18:05.754Z,100447.19
2023-06-02T20:24:38.777Z,100446.94
2023-06-02T20:33:32.466Z,100451.80
2023-06-02T21:13:32.563Z,100497.25
2023-06-02T21:34:46.606Z,100517.23
2023-06-02T21:39:32.508Z,100516.92
2023-06-02T21:44:03.018Z,100522.75
2023-06-02T21:48:53.019Z,100525.77
2023-06-02T21:54:07.667Z,100536.40
2023-06-02T22:00:19.194Z,100541.73
2023-06-02T22:17:35.022Z,100564.31
2023-06-02T22:23:18.806Z,100571.84
2023-06-02T22:34:57.941Z,100575.08
2023-06-02T22:38:40.712Z,100570.33
2023-06-02T22:42:08.461Z,100575.64
2023-06-02T22:47:12.967Z,100584.61
2023-06-02T22:53:00.955Z,100583.06
2023-06-02T22:59:33.565Z,100586.36
2023-06-02T23:03:32.489Z,100589.23
2023-06-02T23:08:26.604Z,100592.04
2023-06-02T23:13:28.138Z,100602.39
2023-06-02T23:20:51.767Z,100607.78
2023-06-02T23:25:00.999Z,100608.04
2023-06-02T23:30:17.470Z,100611.77
2023-06-02T23:42:20.947Z,100619.95
2023-06-02T23:47:50.371Z,100620.53
2023-06-02T23:52:09.854Z,100624.02
2023-06-02T23:57:08.385Z,100620.35
